Ridgecrest, CA (93555)

09:07 AM PDT am 24. Oktober 2014 (GMT -0700)
City Hall | Change Station
CLOSE
Current Station
Persönliche Wetterstationen
Location: Ridgecrest, CA
Höhe: 2315 ft
Wetterstationen in der Umgebung

Höhe 2315 ft 35.62 °N, 117.67 °W | Updated 14 seconds ago

Heiter
Heiter
58.3 °F
gefühlte 58.3 °F
N
3.0
Wind Wechselnd Wind aus West-Nordwest
Gusts 3.0 mph

Heute
Max. -- | schwach -- °F
--% Regenrisiko
Gestern
Max. -- | schwach -- °F
Precip. -- inch
7:05 AM 6:04 PM
Neumond, 1% visible
Druck 30.06 inch
Sichtweite 10.0 Meilen
Wolken Heiter
Taupunkt 30 °F
Feuchtigkeit 34%
Regen 0.00 inch
Schneehöhe Nicht verfügbar..
UV 1 von 12
Pollen 4.10 von 12
Luftqualität Nicht verfügbar..
Flu Activity Sporadic
METAR KNID 241556Z 00000KT 10SM CLR 16/M04 A3009 RMK AO2 SLP180 T01611039 $

More Conditions Fewer Conditions

Druck 30.06 inch
Sichtweite 10.0 Meilen
Wolken Heiter
Taupunkt 30 °F
Feuchtigkeit 34%
Regen 0.00 inch
Schneehöhe Nicht verfügbar..
UV 1 von 12
Pollen 4.10 von 12
Luftqualität Nicht verfügbar..
Flu Activity Sporadic
METAR KNID 241556Z 00000KT 10SM CLR 16/M04 A3009 RMK AO2 SLP180 T01611039 $

More Conditions Fewer Conditions

10-Day Weather Forecast

Almanac

Astronomie

Oct. 24, 2014 Aufgang Untergang
Genaue Zeit 07:05 PDT 18:04 PDT
Bürgerliche Dämmerung 06:39 PDT 18:30 PDT
Nautische Dämmerung 06:09 PDT 18:59 PDT
Astronomische Dämmerung 05:39 PDT 19:29 PDT
Mond 07:47 PDT 18:49 PDT
Länge des sichtbaren Lichts 11h 50m
Tageslänge
10h 58m
Tomorrow will be 2m 4s shorter.
Neumond, 1% of the Moon is Illuminated
Heute
Neumond
Okt 30
Erstes Viertel
Nov 6
Vollmond
Nov 14
Letztes Viertel
Nov 22
Neu

Heutige Rekorde

State Highs State Lows

Community

WunderPhotos

Upload Photos

1,764,597 Fotos hochgeladen!

WunderBlogs® & News

Nearby

Schneehöhe

Station Depth Höhe
Virginia Lakes Ridge 0 in 9200 ft
Leavitt Lake 1 in 9400 ft
Leavitt Meadows 1 in 7200 ft
Sonora Pass 0 in 8800 ft
Summit Meadow 1 in 9122 ft

Erdbebenaktivität

Stadt Distance Mag. Time & Date
Brea, California 116 Meilen 2.9 15:35 PDT
2014-10-23
Brea, California 116 Meilen 2.8 15:34 PDT
2014-10-23
Corona, California 120 Meilen 2.5 13:09 PDT
2014-10-23
Minimum magnitude displayed is 2.5.

küstennahe Wassertemperaturen

Ort Temperatur
Kein Stationsbericht

Wetterstationen in der Umgebung